Time;durP1;ratioP1;P1;durP2;ratioP2;P2;SDS_P1;SDS_P2;PMS_P1;PMS_P2;Temp;Humidity;BMP_temperature;BMP_pressure;BME280_temperature;BME280_humidity;BME280_pressure;Samples;Min_cycle;Max_cycle;Signal;HPM_P1;HPM_P2
2023/07/16 00:09:43;;;;;;;6.10;4.50;;;;;;;21.06;58.13;99156.28;436129;1256;139189;-65
2023/07/16 00:19:48;;;;;;;5.10;4.60;;;;;;;21.01;58.53;99152.08;435975;1256;138691;-65
2023/07/16 00:29:54;;;;;;;4.70;4.20;;;;;;;20.94;58.84;99140.67;435782;1253;138090;-66
2023/07/16 00:40:00;;;;;;;5.00;4.60;;;;;;;20.89;59.37;99138.29;436264;1256;138097;-66
2023/07/16 00:50:08;;;;;;;5.60;5.10;;;;;;;20.84;59.74;99135.46;436276;1253;140556;-65
2023/07/16 01:00:14;;;;;;;;;;;;;;;20.77;60.20;99124.14;435635;1256;140121;-65
2023/07/16 01:10:21;;;;;;;9.20;5.40;;;;;;;20.67;60.60;99116.20;435934;1256;125122;-65
2023/07/16 01:20:27;;;;;;;5.10;4.60;;;;;;;20.53;61.15;99102.28;435739;1252;139266;-66
2023/07/16 01:30:34;;;;;;;7.00;5.20;;;;;;;20.42;61.80;99099.30;436081;1253;139905;-66
2023/07/16 01:40:41;;;;;;;6.40;5.30;;;;;;;20.29;62.46;99094.52;436793;1252;139096;-67
2023/07/16 01:50:46;;;;;;;6.80;5.60;;;;;;;20.17;63.08;99091.20;435605;1251;138907;-64
2023/07/16 02:00:53;;;;;;;6.70;5.40;;;;;;;20.04;63.78;99099.11;435491;1252;139099;-66
2023/07/16 02:10:58;;;;;;;4.90;4.50;;;;;;;19.91;64.37;99097.26;435566;1253;138840;-64
2023/07/16 02:21:04;;;;;;;8.70;5.50;;;;;;;19.79;64.83;99097.71;435523;1256;139652;-65
2023/07/16 02:31:10;;;;;;;6.20;5.60;;;;;;;19.71;65.36;99094.46;435518;1253;140655;-65
2023/07/16 02:41:16;;;;;;;6.10;5.60;;;;;;;19.62;65.83;99091.56;435720;1256;139336;-65
2023/07/16 02:51:22;;;;;;;6.70;6.20;;;;;;;19.55;66.34;99095.52;435833;1253;139974;-66
2023/07/16 03:01:27;;;;;;;6.00;5.50;;;;;;;19.51;66.76;99097.58;436032;1253;139560;-65
2023/07/16 03:11:33;;;;;;;6.00;5.40;;;;;;;19.65;67.07;99108.61;436227;1256;140522;-67
2023/07/16 03:21:39;;;;;;;6.40;5.60;;;;;;;21.13;66.45;99108.78;435732;1253;139801;-66
2023/07/16 03:31:45;;;;;;;5.80;5.30;;;;;;;23.26;62.35;99113.14;435622;1253;139212;-65
2023/07/16 03:41:51;;;;;;;6.60;5.60;;;;;;;22.43;60.51;99113.15;435663;1253;139905;-66
2023/07/16 03:51:56;;;;;;;6.60;5.70;;;;;;;21.53;61.98;99109.00;435469;1253;139440;-66
2023/07/16 04:02:02;;;;;;;7.50;6.50;;;;;;;21.21;62.99;99116.77;435275;1256;139497;-65
2023/07/16 04:12:09;;;;;;;6.00;5.30;;;;;;;21.79;63.87;99116.05;435296;1253;138842;-65
2023/07/16 04:22:15;;;;;;;5.60;5.20;;;;;;;27.83;57.88;99101.08;436580;1254;138849;-66
2023/07/16 04:32:21;;;;;;;4.80;4.50;;;;;;;33.98;47.18;99103.04;435475;1256;140088;-67
2023/07/16 04:42:27;;;;;;;4.50;4.10;;;;;;;38.25;39.67;99109.20;435448;1253;139107;-66
2023/07/16 04:52:32;;;;;;;7.30;5.00;;;;;;;41.83;33.98;99113.65;435786;1254;138629;-64
2023/07/16 05:02:38;;;;;;;4.60;4.20;;;;;;;44.32;30.01;99120.56;435802;1253;138529;-66
2023/07/16 05:12:44;;;;;;;3.20;3.00;;;;;;;46.91;26.47;99122.73;435776;1252;139010;-66
2023/07/16 05:22:49;;;;;;;3.00;2.80;;;;;;;48.79;23.79;99134.38;435598;1254;138139;-65
2023/07/16 05:32:55;;;;;;;4.70;2.90;;;;;;;51.23;21.75;99152.12;435335;1256;138007;-67
2023/07/16 05:43:01;;;;;;;2.80;2.60;;;;;;;53.65;19.69;99178.02;436501;1253;139868;-66
2023/07/16 05:53:07;;;;;;;3.10;2.80;;;;;;;53.60;18.31;99190.13;436006;1253;137978;-66
2023/07/16 06:03:12;;;;;;;3.10;2.90;;;;;;;46.99;20.62;99171.96;435635;1256;138705;-66
2023/07/16 06:13:18;;;;;;;3.50;3.20;;;;;;;49.97;19.78;99180.49;435895;1251;139160;-66
2023/07/16 06:23:24;;;;;;;3.40;3.20;;;;;;;53.84;17.77;99188.15;435841;1253;138047;-66
2023/07/16 06:33:30;;;;;;;4.70;4.40;;;;;;;56.41;16.25;99190.45;435624;1255;139291;-65
2023/07/16 06:43:36;;;;;;;5.00;4.70;;;;;;;58.39;15.11;99192.20;436909;1253;138587;-66
2023/07/16 06:53:41;;;;;;;6.00;5.70;;;;;;;60.09;14.27;99186.48;436280;1254;139172;-66
2023/07/16 07:03:47;;;;;;;8.00;7.30;;;;;;;61.02;13.06;99192.63;435830;1253;139008;-67
2023/07/16 07:13:54;;;;;;;9.90;9.00;;;;;;;61.02;12.79;99196.45;435762;1256;138276;-66
2023/07/16 07:23:59;;;;;;;8.70;8.10;;;;;;;60.16;12.84;99210.02;435679;1253;137977;-67
2023/07/16 07:34:05;;;;;;;10.10;9.60;;;;;;;59.65;13.20;99205.71;436162;1256;138608;-66
2023/07/16 07:44:11;;;;;;;10.30;9.90;;;;;;;61.57;12.26;99209.16;435870;1256;139007;-66
2023/07/16 07:54:17;;;;;;;8.30;7.60;;;;;;;60.40;12.57;99211.35;436074;1253;138842;-66
2023/07/16 08:04:23;;;;;;;;;;;;;;;58.88;12.79;99212.09;435958;1253;139325;-66
2023/07/16 08:14:29;;;;;;;3.00;2.80;;;;;;;51.03;15.62;99205.20;435963;1256;125179;-67
2023/07/16 08:24:35;;;;;;;2.90;2.60;;;;;;;45.03;19.47;99216.64;435821;1256;139652;-67
2023/07/16 08:34:41;;;;;;;2.70;2.30;;;;;;;41.65;21.62;99227.20;436148;1254;139168;-67
2023/07/16 08:44:49;;;;;;;2.30;2.10;;;;;;;39.48;23.17;99241.72;435428;1255;138589;-67
2023/07/16 08:54:55;;;;;;;4.20;2.70;;;;;;;38.62;24.46;99252.80;435697;1253;139000;-67
2023/07/16 09:05:01;;;;;;;8.20;3.00;;;;;;;38.06;25.12;99249.90;435720;1254;138095;-66
2023/07/16 09:15:09;;;;;;;2.40;1.80;;;;;;;37.12;26.17;99255.63;435687;1253;139559;-68
2023/07/16 09:25:14;;;;;;;2.80;2.20;;;;;;;36.87;26.96;99260.15;436075;1254;138294;-68
2023/07/16 09:35:21;;;;;;;3.30;1.90;;;;;;;36.87;26.81;99264.96;435619;1255;138622;-68
2023/07/16 09:45:28;;;;;;;2.70;1.50;;;;;;;36.38;26.85;99270.60;435911;1253;139066;-68
2023/07/16 09:55:36;;;;;;;2.70;1.90;;;;;;;35.56;27.25;99264.36;435753;1254;138584;-66
2023/07/16 10:05:42;;;;;;;1.70;1.60;;;;;;;34.72;28.04;99270.00;435793;1256;137936;-66
2023/07/16 10:15:57;;;;;;;1.50;1.20;;;;;;;34.38;28.27;99263.78;435153;1253;139572;-65
2023/07/16 10:26:05;;;;;;;1.90;1.20;;;;;;;34.02;28.90;99261.28;434835;1253;138274;-65
2023/07/16 10:36:19;;;;;;;1.50;1.40;;;;;;;33.69;29.38;99258.02;436736;1256;138591;-65
2023/07/16 10:46:25;;;;;;;3.10;1.40;;;;;;;33.60;30.06;99257.73;435512;1254;138071;-64
2023/07/16 10:56:30;;;;;;;2.10;1.50;;;;;;;33.58;30.27;99256.19;436122;1256;139082;-65
2023/07/16 11:06:36;;;;;;;3.00;1.60;;;;;;;33.61;30.73;99256.49;436030;1253;139933;-66
2023/07/16 11:16:42;;;;;;;1.30;1.20;;;;;;;33.88;30.59;99267.15;435932;1256;139475;-65
2023/07/16 11:26:54;;;;;;;1.30;1.20;;;;;;;34.17;29.92;99268.35;436000;1253;139713;-65
2023/07/16 11:37:11;;;;;;;1.10;0.90;;;;;;;34.10;29.77;99268.41;436610;1256;138746;-65
2023/07/16 11:47:17;;;;;;;1.10;1.00;;;;;;;34.02;30.27;99266.93;436218;1256;139441;-65
2023/07/16 11:57:22;;;;;;;1.50;1.20;;;;;;;34.51;30.09;99263.05;436193;1256;138405;-65
2023/07/16 12:07:36;;;;;;;1.70;1.10;;;;;;;34.72;29.77;99258.17;435953;1256;138193;-65
2023/07/16 12:17:42;;;;;;;2.10;1.10;;;;;;;35.27;29.36;99243.52;436049;1256;138146;-65
2023/07/16 12:27:46;;;;;;;;;;;;;;;35.55;29.06;99242.76;435527;1254;139279;-65
2023/07/16 12:37:52;;;;;;;1.00;1.00;;;;;;;35.41;29.41;99246.17;435690;1254;125056;-65
2023/07/16 12:47:58;;;;;;;1.70;1.00;;;;;;;34.83;29.63;99254.59;435717;1256;138510;-65
2023/07/16 12:58:02;;;;;;;;;;;;;;;34.04;30.46;99253.27;435646;1256;138030;-65
2023/07/16 13:08:08;;;;;;;3.30;1.30;;;;;;;33.60;31.56;99259.58;436223;1256;125467;-65
2023/07/16 13:18:14;;;;;;;1.20;1.10;;;;;;;33.41;31.74;99274.96;435823;1256;138512;-65
2023/07/16 13:28:21;;;;;;;1.90;1.20;;;;;;;33.34;31.82;99278.20;435679;1256;140203;-66
2023/07/16 13:38:26;;;;;;;1.60;1.40;;;;;;;33.30;31.93;99284.65;435640;1256;139280;-66
2023/07/16 13:48:32;;;;;;;1.30;1.20;;;;;;;33.59;31.99;99285.47;435621;1256;139160;-66
2023/07/16 13:58:58;;;;;;;1.20;1.00;;;;;;;33.70;31.46;99282.91;435905;1257;138042;-64
2023/07/16 14:09:04;;;;;;;1.30;1.00;;;;;;;33.27;31.78;99290.55;435786;1257;139003;-65
2023/07/16 14:19:12;;;;;;;1.20;1.20;;;;;;;32.83;32.09;99291.99;436323;1256;138053;-66
2023/07/16 14:29:17;;;;;;;2.40;1.50;;;;;;;32.71;32.83;99299.47;435891;1254;138788;-65
2023/07/16 14:39:23;;;;;;;1.20;1.10;;;;;;;32.86;32.91;99306.36;435595;1256;138070;-65
2023/07/16 14:49:29;;;;;;;2.40;1.10;;;;;;;32.85;32.69;99312.27;435518;1256;139525;-65
2023/07/16 14:59:36;;;;;;;2.50;1.40;;;;;;;32.67;33.05;99319.79;435939;1256;138520;-65
2023/07/16 15:09:42;;;;;;;3.10;1.20;;;;;;;32.13;33.58;99321.92;435361;1256;138383;-65
2023/07/16 15:19:48;;;;;;;2.00;1.30;;;;;;;31.76;34.52;99322.89;435112;1254;138503;-65
2023/07/16 15:29:53;;;;;;;1.10;1.10;;;;;;;31.58;35.36;99328.55;435820;1256;138416;-66
2023/07/16 15:39:59;;;;;;;1.40;1.30;;;;;;;31.25;35.96;99332.80;436023;1254;140171;-66
2023/07/16 15:50:06;;;;;;;1.20;1.10;;;;;;;30.97;36.52;99332.31;436394;1255;138709;-66
2023/07/16 16:00:15;;;;;;;2.00;1.40;;;;;;;30.87;36.99;99325.45;436073;1255;139374;-65
2023/07/16 16:10:21;;;;;;;1.40;1.20;;;;;;;30.74;37.48;99330.14;436161;1254;138105;-66
2023/07/16 16:20:27;;;;;;;1.10;1.00;;;;;;;30.20;38.07;99328.87;435983;1256;139312;-66
2023/07/16 16:30:33;;;;;;;2.20;1.10;;;;;;;29.58;39.01;99337.02;435279;1254;138445;-66
2023/07/16 16:40:40;;;;;;;2.40;1.40;;;;;;;29.16;39.97;99352.11;436179;1257;137977;-70
2023/07/16 16:50:46;;;;;;;1.50;1.00;;;;;;;28.72;40.61;99359.30;435865;1255;139315;-71
2023/07/16 17:00:55;;;;;;;1.50;1.40;;;;;;;28.61;41.11;99362.49;435523;1255;138554;-70
2023/07/16 17:11:01;;;;;;;0.70;0.70;;;;;;;28.45;41.25;99364.06;436277;1256;138921;-72
2023/07/16 17:21:07;;;;;;;3.00;1.20;;;;;;;28.42;41.64;99369.58;436047;1254;139961;-70
2023/07/16 17:31:13;;;;;;;1.40;1.30;;;;;;;28.34;42.04;99374.52;436305;1254;138363;-70
2023/07/16 17:41:19;;;;;;;3.50;1.30;;;;;;;27.93;42.85;99379.20;436399;1254;139933;-69
2023/07/16 17:51:26;;;;;;;1.30;0.90;;;;;;;27.53;43.95;99382.85;435932;1254;140274;-66
2023/07/16 18:01:32;;;;;;;1.20;1.10;;;;;;;27.28;44.83;99377.68;435517;1254;138544;-62
2023/07/16 18:11:41;;;;;;;4.70;1.30;;;;;;;27.31;45.68;99379.87;435637;1254;138009;-60
2023/07/16 18:21:47;;;;;;;6.50;1.30;;;;;;;27.09;46.39;99389.48;435533;1256;138657;-63
2023/07/16 18:32:14;;;;;;;3.80;1.50;;;;;;;27.00;47.20;99393.77;435450;1254;139205;-63
2023/07/16 18:42:20;;;;;;;4.20;2.50;;;;;;;26.86;47.63;99396.27;435380;1255;140172;-63
2023/07/16 18:52:26;;;;;;;2.00;1.40;;;;;;;26.64;48.33;99404.13;435703;1256;138052;-63
2023/07/16 19:02:32;;;;;;;1.50;1.40;;;;;;;26.26;49.56;99405.86;435161;1254;138474;-63
2023/07/16 19:12:38;;;;;;;2.40;1.90;;;;;;;25.84;50.57;99417.61;435225;1254;139110;-63
2023/07/16 19:22:43;;;;;;;3.40;2.10;;;;;;;25.57;51.60;99428.60;435682;1256;138437;-63
2023/07/16 19:32:52;;;;;;;4.20;1.90;;;;;;;25.29;52.48;99438.62;436299;1252;138599;-63
2023/07/16 19:42:57;;;;;;;3.10;1.50;;;;;;;24.90;53.48;99447.08;435872;1256;139263;-61
2023/07/16 19:53:03;;;;;;;5.30;3.70;;;;;;;24.51;54.36;99447.36;436020;1254;138748;-61
2023/07/16 20:03:10;;;;;;;7.30;1.90;;;;;;;24.04;55.18;99450.81;435800;1256;140201;-61
2023/07/16 20:13:17;;;;;;;1.80;1.70;;;;;;;23.57;56.30;99450.36;436142;1254;138898;-61
2023/07/16 20:23:25;;;;;;;2.50;2.20;;;;;;;23.15;57.64;99454.84;437316;1253;138287;-61
2023/07/16 20:33:31;;;;;;;7.50;2.80;;;;;;;22.79;58.81;99456.36;436836;1252;138877;-62
2023/07/16 20:43:37;;;;;;;1.70;1.60;;;;;;;22.43;59.62;99454.27;436060;1253;138928;-61
2023/07/16 20:53:44;;;;;;;1.80;1.70;;;;;;;22.10;60.45;99452.86;435622;1256;139135;-60
2023/07/16 21:03:50;;;;;;;2.40;1.80;;;;;;;21.81;61.33;99459.55;435339;1253;140532;-61
2023/07/16 21:13:56;;;;;;;2.60;2.40;;;;;;;21.51;62.32;99449.70;435165;1254;140463;-61
2023/07/16 21:24:02;;;;;;;2.60;2.30;;;;;;;21.29;63.06;99469.08;435145;1254;138954;-61
2023/07/16 21:34:08;;;;;;;2.90;2.10;;;;;;;21.09;63.88;99470.54;437253;1254;139923;-62
2023/07/16 21:44:14;;;;;;;5.20;2.70;;;;;;;20.94;64.62;99476.12;435576;1253;139878;-61
2023/07/16 21:54:20;;;;;;;3.50;2.70;;;;;;;20.80;65.31;99489.33;435886;1254;140349;-61
2023/07/16 22:04:27;;;;;;;2.80;2.60;;;;;;;20.64;65.90;99492.25;435806;1254;140017;-61
2023/07/16 22:14:32;;;;;;;4.00;3.70;;;;;;;20.46;66.49;99490.08;435986;1253;139513;-62
2023/07/16 22:24:38;;;;;;;2.70;2.50;;;;;;;20.31;67.16;99477.85;435524;1256;140247;-62
2023/07/16 22:34:44;;;;;;;5.20;4.10;;;;;;;20.20;67.81;99482.88;435699;1253;139022;-63
2023/07/16 22:44:50;;;;;;;3.60;2.70;;;;;;;20.09;68.62;99490.31;435633;1253;138982;-62
2023/07/16 22:54:56;;;;;;;2.90;2.70;;;;;;;20.15;68.62;99503.80;435485;1253;140071;-62
2023/07/16 23:05:01;;;;;;;3.10;2.90;;;;;;;20.06;68.97;99503.59;435599;1253;138890;-62
2023/07/16 23:15:09;;;;;;;3.00;2.40;;;;;;;20.03;69.24;99506.73;435483;1256;139638;-62
2023/07/16 23:25:15;;;;;;;4.40;3.80;;;;;;;19.88;69.64;99519.11;435544;1253;139759;-63
2023/07/16 23:35:21;;;;;;;2.50;2.30;;;;;;;19.73;70.29;99518.99;435428;1254;140407;-62
2023/07/16 23:45:27;;;;;;;3.00;2.60;;;;;;;19.70;70.75;99522.02;435271;1256;140352;-62
2023/07/16 23:55:33;;;;;;;3.10;2.90;;;;;;;19.69;71.32;99509.97;435247;1253;140280;-62
